sensor_id;sensor_type;location;lat;lon;timestamp;temperature;humidity
22974;DHT22;11653;50.848;4.584;2023-06-24T00:01:35;18.80;99.90
22974;DHT22;11653;50.848;4.584;2023-06-24T00:04:02;18.70;99.90
22974;DHT22;11653;50.848;4.584;2023-06-24T00:06:27;18.60;99.90
22974;DHT22;11653;50.848;4.584;2023-06-24T00:08:53;18.60;99.90
22974;DHT22;11653;50.848;4.584;2023-06-24T00:11:29;18.60;99.90
22974;DHT22;11653;50.848;4.584;2023-06-24T00:13:55;18.50;99.90
22974;DHT22;11653;50.848;4.584;2023-06-24T00:16:21;18.40;99.90
22974;DHT22;11653;50.848;4.584;2023-06-24T00:18:53;18.40;99.90
22974;DHT22;11653;50.848;4.584;2023-06-24T00:21:19;18.30;99.90
22974;DHT22;11653;50.848;4.584;2023-06-24T00:23:45;18.30;99.90
22974;DHT22;11653;50.848;4.584;2023-06-24T00:26:14;18.30;99.90
22974;DHT22;11653;50.848;4.584;2023-06-24T00:28:40;18.30;99.90
22974;DHT22;11653;50.848;4.584;2023-06-24T00:31:05;18.30;99.90
22974;DHT22;11653;50.848;4.584;2023-06-24T00:33:31;18.30;99.90
22974;DHT22;11653;50.848;4.584;2023-06-24T00:36:01;18.30;99.90
22974;DHT22;11653;50.848;4.584;2023-06-24T00:38:27;18.20;99.90
22974;DHT22;11653;50.848;4.584;2023-06-24T00:40:58;18.10;99.90
22974;DHT22;11653;50.848;4.584;2023-06-24T00:43:24;18.10;99.90
22974;DHT22;11653;50.848;4.584;2023-06-24T00:45:50;18.10;99.90
22974;DHT22;11653;50.848;4.584;2023-06-24T00:48:16;17.90;99.90
22974;DHT22;11653;50.848;4.584;2023-06-24T00:50:42;17.90;99.90
22974;DHT22;11653;50.848;4.584;2023-06-24T00:53:11;17.80;99.90
22974;DHT22;11653;50.848;4.584;2023-06-24T00:55:37;17.70;99.90
22974;DHT22;11653;50.848;4.584;2023-06-24T00:58:04;17.70;99.90
22974;DHT22;11653;50.848;4.584;2023-06-24T01:00:29;17.70;99.90
22974;DHT22;11653;50.848;4.584;2023-06-24T01:02:58;17.70;99.90
22974;DHT22;11653;50.848;4.584;2023-06-24T01:05:25;17.70;99.90
22974;DHT22;11653;50.848;4.584;2023-06-24T01:07:51;17.70;99.90
22974;DHT22;11653;50.848;4.584;2023-06-24T01:10:20;17.60;99.90
22974;DHT22;11653;50.848;4.584;2023-06-24T01:12:46;17.50;99.90
22974;DHT22;11653;50.848;4.584;2023-06-24T01:15:12;17.40;99.90
22974;DHT22;11653;50.848;4.584;2023-06-24T01:21:03;17.40;99.90
22974;DHT22;11653;50.848;4.584;2023-06-24T01:26:52;17.30;99.90
22974;DHT22;11653;50.848;4.584;2023-06-24T01:32:07;17.30;99.90
22974;DHT22;11653;50.848;4.584;2023-06-24T01:34:44;17.20;99.90
22974;DHT22;11653;50.848;4.584;2023-06-24T01:37:19;17.20;99.90
22974;DHT22;11653;50.848;4.584;2023-06-24T01:42:28;17.00;99.90
22974;DHT22;11653;50.848;4.584;2023-06-24T01:44:57;17.00;99.90
22974;DHT22;11653;50.848;4.584;2023-06-24T01:47:26;17.00;99.90
22974;DHT22;11653;50.848;4.584;2023-06-24T01:49:54;16.90;99.90
22974;DHT22;11653;50.848;4.584;2023-06-24T01:52:23;16.90;99.90
22974;DHT22;11653;50.848;4.584;2023-06-24T01:54:52;16.90;99.90
22974;DHT22;11653;50.848;4.584;2023-06-24T01:57:20;16.90;99.90
22974;DHT22;11653;50.848;4.584;2023-06-24T01:59:47;16.80;99.90
22974;DHT22;11653;50.848;4.584;2023-06-24T02:02:14;16.70;99.90
22974;DHT22;11653;50.848;4.584;2023-06-24T02:04:40;16.60;99.90
22974;DHT22;11653;50.848;4.584;2023-06-24T02:07:08;16.60;99.90
22974;DHT22;11653;50.848;4.584;2023-06-24T02:09:35;16.60;99.90
22974;DHT22;11653;50.848;4.584;2023-06-24T02:12:02;16.50;99.90
22974;DHT22;11653;50.848;4.584;2023-06-24T02:14:30;16.50;99.90
22974;DHT22;11653;50.848;4.584;2023-06-24T02:16:57;16.50;99.90
22974;DHT22;11653;50.848;4.584;2023-06-24T02:19:29;16.40;99.90
22974;DHT22;11653;50.848;4.584;2023-06-24T02:21:59;16.40;99.90
22974;DHT22;11653;50.848;4.584;2023-06-24T02:24:27;16.30;99.90
22974;DHT22;11653;50.848;4.584;2023-06-24T02:26:54;16.30;99.90
22974;DHT22;11653;50.848;4.584;2023-06-24T02:29:22;16.30;99.90
22974;DHT22;11653;50.848;4.584;2023-06-24T02:31:48;16.30;99.90
22974;DHT22;11653;50.848;4.584;2023-06-24T02:34:15;16.20;99.90
22974;DHT22;11653;50.848;4.584;2023-06-24T02:36:41;16.10;99.90
22974;DHT22;11653;50.848;4.584;2023-06-24T02:39:06;16.10;99.90
22974;DHT22;11653;50.848;4.584;2023-06-24T02:41:32;16.10;99.90
22974;DHT22;11653;50.848;4.584;2023-06-24T02:43:58;16.10;99.90
22974;DHT22;11653;50.848;4.584;2023-06-24T02:46:24;16.10;99.90
22974;DHT22;11653;50.848;4.584;2023-06-24T02:48:51;15.90;99.90
22974;DHT22;11653;50.848;4.584;2023-06-24T02:51:17;15.80;99.90
22974;DHT22;11653;50.848;4.584;2023-06-24T02:53:45;15.80;99.90
22974;DHT22;11653;50.848;4.584;2023-06-24T02:56:12;15.70;99.90
22974;DHT22;11653;50.848;4.584;2023-06-24T02:58:39;15.70;99.90
22974;DHT22;11653;50.848;4.584;2023-06-24T03:01:06;15.70;99.90
22974;DHT22;11653;50.848;4.584;2023-06-24T03:03:35;15.60;99.90
22974;DHT22;11653;50.848;4.584;2023-06-24T03:06:01;15.60;99.90
22974;DHT22;11653;50.848;4.584;2023-06-24T03:08:28;15.60;99.90
22974;DHT22;11653;50.848;4.584;2023-06-24T03:10:57;15.60;99.90
22974;DHT22;11653;50.848;4.584;2023-06-24T03:13:24;15.60;99.90
22974;DHT22;11653;50.848;4.584;2023-06-24T03:15:50;15.60;99.90
22974;DHT22;11653;50.848;4.584;2023-06-24T03:18:16;15.60;99.90
22974;DHT22;11653;50.848;4.584;2023-06-24T03:20:42;15.50;99.90
22974;DHT22;11653;50.848;4.584;2023-06-24T03:23:08;15.40;99.90
22974;DHT22;11653;50.848;4.584;2023-06-24T03:25:35;15.40;99.90
22974;DHT22;11653;50.848;4.584;2023-06-24T03:28:01;15.40;99.90
22974;DHT22;11653;50.848;4.584;2023-06-24T03:30:29;15.40;99.90
22974;DHT22;11653;50.848;4.584;2023-06-24T03:32:55;15.40;99.90
22974;DHT22;11653;50.848;4.584;2023-06-24T03:35:21;15.40;99.90
22974;DHT22;11653;50.848;4.584;2023-06-24T03:37:48;15.30;99.90
22974;DHT22;11653;50.848;4.584;2023-06-24T03:40:13;15.20;99.90
22974;DHT22;11653;50.848;4.584;2023-06-24T03:42:39;15.20;99.90
22974;DHT22;11653;50.848;4.584;2023-06-24T03:45:05;15.20;99.90
22974;DHT22;11653;50.848;4.584;2023-06-24T03:47:31;15.10;99.90
22974;DHT22;11653;50.848;4.584;2023-06-24T03:49:57;15.10;99.90
22974;DHT22;11653;50.848;4.584;2023-06-24T03:52:22;15.10;99.90
22974;DHT22;11653;50.848;4.584;2023-06-24T03:54:48;15.20;99.90
22974;DHT22;11653;50.848;4.584;2023-06-24T03:57:14;15.10;99.90
22974;DHT22;11653;50.848;4.584;2023-06-24T03:59:39;15.10;99.90
22974;DHT22;11653;50.848;4.584;2023-06-24T04:02:05;15.20;99.90
22974;DHT22;11653;50.848;4.584;2023-06-24T04:04:34;15.30;99.90
22974;DHT22;11653;50.848;4.584;2023-06-24T04:07:00;15.40;99.90
22974;DHT22;11653;50.848;4.584;2023-06-24T04:09:26;15.30;99.90
22974;DHT22;11653;50.848;4.584;2023-06-24T04:11:51;15.30;99.90
22974;DHT22;11653;50.848;4.584;2023-06-24T04:14:17;15.30;99.90
22974;DHT22;11653;50.848;4.584;2023-06-24T04:16:43;15.30;99.90
22974;DHT22;11653;50.848;4.584;2023-06-24T04:19:08;15.30;99.90
22974;DHT22;11653;50.848;4.584;2023-06-24T04:21:34;15.40;99.90
22974;DHT22;11653;50.848;4.584;2023-06-24T04:23:59;15.60;99.90
22974;DHT22;11653;50.848;4.584;2023-06-24T04:26:26;15.80;99.90
22974;DHT22;11653;50.848;4.584;2023-06-24T04:28:51;16.20;99.90
22974;DHT22;11653;50.848;4.584;2023-06-24T04:31:17;16.50;99.90
22974;DHT22;11653;50.848;4.584;2023-06-24T04:33:43;16.80;99.90
22974;DHT22;11653;50.848;4.584;2023-06-24T04:36:08;17.00;99.90
22974;DHT22;11653;50.848;4.584;2023-06-24T04:38:34;17.10;99.90
22974;DHT22;11653;50.848;4.584;2023-06-24T04:41:00;17.10;99.90
22974;DHT22;11653;50.848;4.584;2023-06-24T04:43:26;17.20;99.90
22974;DHT22;11653;50.848;4.584;2023-06-24T04:45:54;17.40;99.90
22974;DHT22;11653;50.848;4.584;2023-06-24T04:48:23;17.70;99.90
22974;DHT22;11653;50.848;4.584;2023-06-24T04:50:49;18.10;99.90
22974;DHT22;11653;50.848;4.584;2023-06-24T04:53:14;18.50;99.90
22974;DHT22;11653;50.848;4.584;2023-06-24T04:55:40;19.00;99.90
22974;DHT22;11653;50.848;4.584;2023-06-24T04:58:06;19.50;99.90
22974;DHT22;11653;50.848;4.584;2023-06-24T05:00:31;20.00;99.90
22974;DHT22;11653;50.848;4.584;2023-06-24T05:02:57;20.30;99.90
22974;DHT22;11653;50.848;4.584;2023-06-24T05:05:23;20.80;99.90
22974;DHT22;11653;50.848;4.584;2023-06-24T05:07:48;21.20;99.90
22974;DHT22;11653;50.848;4.584;2023-06-24T05:10:14;21.50;99.90
22974;DHT22;11653;50.848;4.584;2023-06-24T05:12:40;21.80;99.90
22974;DHT22;11653;50.848;4.584;2023-06-24T05:15:07;22.10;99.90
22974;DHT22;11653;50.848;4.584;2023-06-24T05:17:33;22.40;99.90
22974;DHT22;11653;50.848;4.584;2023-06-24T05:19:58;22.80;99.90
22974;DHT22;11653;50.848;4.584;2023-06-24T05:22:24;23.30;99.90
22974;DHT22;11653;50.848;4.584;2023-06-24T05:24:50;23.90;99.90
22974;DHT22;11653;50.848;4.584;2023-06-24T05:27:15;24.30;99.90
22974;DHT22;11653;50.848;4.584;2023-06-24T05:29:43;24.80;99.90
22974;DHT22;11653;50.848;4.584;2023-06-24T05:32:08;25.20;99.90
22974;DHT22;11653;50.848;4.584;2023-06-24T05:34:34;25.40;99.90
22974;DHT22;11653;50.848;4.584;2023-06-24T05:37:00;25.70;99.90
22974;DHT22;11653;50.848;4.584;2023-06-24T05:39:26;26.00;99.90
22974;DHT22;11653;50.848;4.584;2023-06-24T05:41:52;26.20;99.90
22974;DHT22;11653;50.848;4.584;2023-06-24T05:44:17;26.40;99.90
22974;DHT22;11653;50.848;4.584;2023-06-24T05:46:44;26.70;99.90
22974;DHT22;11653;50.848;4.584;2023-06-24T05:49:10;27.00;99.90
22974;DHT22;11653;50.848;4.584;2023-06-24T05:51:36;27.40;99.20
22974;DHT22;11653;50.848;4.584;2023-06-24T05:54:01;27.80;98.50
22974;DHT22;11653;50.848;4.584;2023-06-24T05:56:27;28.00;96.50
22974;DHT22;11653;50.848;4.584;2023-06-24T05:58:53;28.20;96.80
22974;DHT22;11653;50.848;4.584;2023-06-24T06:01:18;28.40;94.80
22974;DHT22;11653;50.848;4.584;2023-06-24T06:03:44;28.70;93.50
22974;DHT22;11653;50.848;4.584;2023-06-24T06:06:10;28.70;92.20
22974;DHT22;11653;50.848;4.584;2023-06-24T06:08:35;28.90;92.20
22974;DHT22;11653;50.848;4.584;2023-06-24T06:11:01;29.10;91.90
22974;DHT22;11653;50.848;4.584;2023-06-24T06:13:29;29.10;91.60
22974;DHT22;11653;50.848;4.584;2023-06-24T06:15:56;29.40;91.00
22974;DHT22;11653;50.848;4.584;2023-06-24T06:18:22;29.70;90.50
22974;DHT22;11653;50.848;4.584;2023-06-24T06:20:48;30.00;89.40
22974;DHT22;11653;50.848;4.584;2023-06-24T06:23:14;30.10;89.20
22974;DHT22;11653;50.848;4.584;2023-06-24T06:25:40;30.40;88.70
22974;DHT22;11653;50.848;4.584;2023-06-24T06:28:05;30.60;81.70
22974;DHT22;11653;50.848;4.584;2023-06-24T06:30:31;30.40;76.60
22974;DHT22;11653;50.848;4.584;2023-06-24T06:32:57;30.40;78.20
22974;DHT22;11653;50.848;4.584;2023-06-24T06:35:22;30.30;79.20
22974;DHT22;11653;50.848;4.584;2023-06-24T06:37:48;30.00;78.10
22974;DHT22;11653;50.848;4.584;2023-06-24T06:40:19;29.60;77.90
22974;DHT22;11653;50.848;4.584;2023-06-24T06:42:44;29.30;79.80
22974;DHT22;11653;50.848;4.584;2023-06-24T06:45:10;29.10;79.50
22974;DHT22;11653;50.848;4.584;2023-06-24T06:47:36;29.00;78.90
22974;DHT22;11653;50.848;4.584;2023-06-24T06:50:01;28.90;79.60
22974;DHT22;11653;50.848;4.584;2023-06-24T06:52:27;28.70;79.40
22974;DHT22;11653;50.848;4.584;2023-06-24T06:54:54;28.80;81.50
22974;DHT22;11653;50.848;4.584;2023-06-24T06:57:19;29.30;82.80
22974;DHT22;11653;50.848;4.584;2023-06-24T06:59:45;29.80;76.90
22974;DHT22;11653;50.848;4.584;2023-06-24T07:02:11;30.10;77.20
22974;DHT22;11653;50.848;4.584;2023-06-24T07:04:36;30.20;76.20
22974;DHT22;11653;50.848;4.584;2023-06-24T07:07:02;30.10;75.60
22974;DHT22;11653;50.848;4.584;2023-06-24T07:09:28;30.40;75.80
22974;DHT22;11653;50.848;4.584;2023-06-24T07:11:53;30.60;74.10
22974;DHT22;11653;50.848;4.584;2023-06-24T07:14:19;30.50;72.80
22974;DHT22;11653;50.848;4.584;2023-06-24T07:16:45;30.50;73.40
22974;DHT22;11653;50.848;4.584;2023-06-24T07:19:10;30.70;73.00
22974;DHT22;11653;50.848;4.584;2023-06-24T07:21:37;30.90;72.50
22974;DHT22;11653;50.848;4.584;2023-06-24T07:24:03;31.00;72.30
22974;DHT22;11653;50.848;4.584;2023-06-24T07:26:28;31.10;70.20
22974;DHT22;11653;50.848;4.584;2023-06-24T07:28:58;31.00;70.00
22974;DHT22;11653;50.848;4.584;2023-06-24T07:31:24;31.20;69.00
22974;DHT22;11653;50.848;4.584;2023-06-24T07:33:50;31.10;69.20
22974;DHT22;11653;50.848;4.584;2023-06-24T07:36:16;31.20;68.60
22974;DHT22;11653;50.848;4.584;2023-06-24T07:38:42;31.40;68.80
22974;DHT22;11653;50.848;4.584;2023-06-24T07:41:08;31.40;67.20
22974;DHT22;11653;50.848;4.584;2023-06-24T07:43:33;31.90;65.60
22974;DHT22;11653;50.848;4.584;2023-06-24T07:45:59;32.00;66.00
22974;DHT22;11653;50.848;4.584;2023-06-24T07:48:25;32.10;64.20
22974;DHT22;11653;50.848;4.584;2023-06-24T07:50:50;32.20;64.00
22974;DHT22;11653;50.848;4.584;2023-06-24T07:53:16;32.50;62.80
22974;DHT22;11653;50.848;4.584;2023-06-24T07:55:41;32.50;63.00
22974;DHT22;11653;50.848;4.584;2023-06-24T07:58:07;32.60;62.50
22974;DHT22;11653;50.848;4.584;2023-06-24T08:00:33;32.90;63.70
22974;DHT22;11653;50.848;4.584;2023-06-24T08:02:59;33.30;61.70
22974;DHT22;11653;50.848;4.584;2023-06-24T08:05:25;33.60;59.70
22974;DHT22;11653;50.848;4.584;2023-06-24T08:07:52;33.80;58.90
22974;DHT22;11653;50.848;4.584;2023-06-24T08:10:18;33.70;59.10
22974;DHT22;11653;50.848;4.584;2023-06-24T08:12:43;33.70;58.50
22974;DHT22;11653;50.848;4.584;2023-06-24T08:15:09;33.50;58.80
22974;DHT22;11653;50.848;4.584;2023-06-24T08:17:35;33.50;58.60
22974;DHT22;11653;50.848;4.584;2023-06-24T08:20:01;33.70;57.60
22974;DHT22;11653;50.848;4.584;2023-06-24T08:22:28;34.10;58.10
22974;DHT22;11653;50.848;4.584;2023-06-24T08:24:53;34.30;56.90
22974;DHT22;11653;50.848;4.584;2023-06-24T08:27:19;34.50;56.10
22974;DHT22;11653;50.848;4.584;2023-06-24T08:29:45;34.90;55.80
22974;DHT22;11653;50.848;4.584;2023-06-24T08:32:10;34.90;56.40
22974;DHT22;11653;50.848;4.584;2023-06-24T08:34:36;34.90;54.50
22974;DHT22;11653;50.848;4.584;2023-06-24T08:37:02;35.30;54.20
22974;DHT22;11653;50.848;4.584;2023-06-24T08:39:28;35.80;53.00
22974;DHT22;11653;50.848;4.584;2023-06-24T08:41:53;35.70;53.30
22974;DHT22;11653;50.848;4.584;2023-06-24T08:44:19;35.50;51.60
22974;DHT22;11653;50.848;4.584;2023-06-24T08:46:45;35.40;52.40
22974;DHT22;11653;50.848;4.584;2023-06-24T08:51:54;35.70;49.90
22974;DHT22;11653;50.848;4.584;2023-06-24T08:54:23;35.40;52.10
22974;DHT22;11653;50.848;4.584;2023-06-24T08:56:49;35.20;50.80
22974;DHT22;11653;50.848;4.584;2023-06-24T08:59:15;35.10;51.90
22974;DHT22;11653;50.848;4.584;2023-06-24T09:01:45;35.20;51.50
22974;DHT22;11653;50.848;4.584;2023-06-24T09:04:11;35.30;51.50
22974;DHT22;11653;50.848;4.584;2023-06-24T09:06:37;35.30;51.60
22974;DHT22;11653;50.848;4.584;2023-06-24T09:09:03;35.40;50.90
22974;DHT22;11653;50.848;4.584;2023-06-24T09:11:28;35.40;51.20
22974;DHT22;11653;50.848;4.584;2023-06-24T09:13:58;35.70;51.60
22974;DHT22;11653;50.848;4.584;2023-06-24T09:16:25;36.10;50.70
22974;DHT22;11653;50.848;4.584;2023-06-24T09:18:52;36.00;50.00
22974;DHT22;11653;50.848;4.584;2023-06-24T09:21:26;36.00;49.80
22974;DHT22;11653;50.848;4.584;2023-06-24T09:23:56;36.20;49.40
22974;DHT22;11653;50.848;4.584;2023-06-24T09:26:23;36.00;50.60
22974;DHT22;11653;50.848;4.584;2023-06-24T09:28:49;36.10;51.10
22974;DHT22;11653;50.848;4.584;2023-06-24T09:31:15;36.10;50.50
22974;DHT22;11653;50.848;4.584;2023-06-24T09:33:41;36.50;49.40
22974;DHT22;11653;50.848;4.584;2023-06-24T09:36:06;36.80;50.40
22974;DHT22;11653;50.848;4.584;2023-06-24T09:38:37;37.10;47.60
22974;DHT22;11653;50.848;4.584;2023-06-24T09:41:07;37.50;47.40
22974;DHT22;11653;50.848;4.584;2023-06-24T09:43:35;37.80;47.60
22974;DHT22;11653;50.848;4.584;2023-06-24T09:46:05;38.10;45.60
22974;DHT22;11653;50.848;4.584;2023-06-24T09:48:32;38.10;46.30
22974;DHT22;11653;50.848;4.584;2023-06-24T09:51:03;37.90;45.30
22974;DHT22;11653;50.848;4.584;2023-06-24T09:53:33;38.20;45.50
22974;DHT22;11653;50.848;4.584;2023-06-24T09:56:01;38.50;44.80
22974;DHT22;11653;50.848;4.584;2023-06-24T09:58:32;38.20;44.70
22974;DHT22;11653;50.848;4.584;2023-06-24T10:01:04;37.90;45.70
22974;DHT22;11653;50.848;4.584;2023-06-24T10:03:33;38.10;46.40
22974;DHT22;11653;50.848;4.584;2023-06-24T10:06:01;38.20;46.10
22974;DHT22;11653;50.848;4.584;2023-06-24T10:08:28;38.80;43.60
22974;DHT22;11653;50.848;4.584;2023-06-24T10:10:54;39.20;42.00
22974;DHT22;11653;50.848;4.584;2023-06-24T10:13:19;39.60;42.60
22974;DHT22;11653;50.848;4.584;2023-06-24T10:15:45;40.00;43.70
22974;DHT22;11653;50.848;4.584;2023-06-24T10:18:34;40.30;41.10
22974;DHT22;11653;50.848;4.584;2023-06-24T10:21:01;41.10;41.20
22974;DHT22;11653;50.848;4.584;2023-06-24T10:23:51;41.10;39.10
22974;DHT22;11653;50.848;4.584;2023-06-24T10:26:28;40.80;39.60
22974;DHT22;11653;50.848;4.584;2023-06-24T10:36:58;39.50;40.60
22974;DHT22;11653;50.848;4.584;2023-06-24T10:39:46;39.20;42.10
22974;DHT22;11653;50.848;4.584;2023-06-24T10:42:39;38.50;41.80
22974;DHT22;11653;50.848;4.584;2023-06-24T10:47:35;38.00;41.90
22974;DHT22;11653;50.848;4.584;2023-06-24T10:50:01;38.40;42.20
22974;DHT22;11653;50.848;4.584;2023-06-24T10:52:27;38.60;42.30
22974;DHT22;11653;50.848;4.584;2023-06-24T10:54:53;38.90;42.10
22974;DHT22;11653;50.848;4.584;2023-06-24T10:57:24;39.50;41.70
22974;DHT22;11653;50.848;4.584;2023-06-24T10:59:51;40.40;39.70
22974;DHT22;11653;50.848;4.584;2023-06-24T11:02:19;40.50;39.70
22974;DHT22;11653;50.848;4.584;2023-06-24T11:04:52;40.20;37.80
22974;DHT22;11653;50.848;4.584;2023-06-24T11:07:32;40.10;37.30
22974;DHT22;11653;50.848;4.584;2023-06-24T11:10:05;39.20;37.90
22974;DHT22;11653;50.848;4.584;2023-06-24T11:12:33;39.30;41.50
22974;DHT22;11653;50.848;4.584;2023-06-24T11:15:02;39.30;40.00
22974;DHT22;11653;50.848;4.584;2023-06-24T11:17:28;39.00;40.40
22974;DHT22;11653;50.848;4.584;2023-06-24T11:19:54;38.60;41.50
22974;DHT22;11653;50.848;4.584;2023-06-24T11:22:20;38.40;39.90
22974;DHT22;11653;50.848;4.584;2023-06-24T11:24:46;38.70;40.50
22974;DHT22;11653;50.848;4.584;2023-06-24T11:27:12;39.10;41.40
22974;DHT22;11653;50.848;4.584;2023-06-24T11:29:38;39.70;40.50
22974;DHT22;11653;50.848;4.584;2023-06-24T11:32:07;39.50;38.70
22974;DHT22;11653;50.848;4.584;2023-06-24T11:34:34;39.50;38.90
22974;DHT22;11653;50.848;4.584;2023-06-24T11:37:12;39.30;38.90
22974;DHT22;11653;50.848;4.584;2023-06-24T11:39:38;38.90;37.70
22974;DHT22;11653;50.848;4.584;2023-06-24T11:42:09;38.70;40.30
22974;DHT22;11653;50.848;4.584;2023-06-24T11:44:35;38.30;40.40
22974;DHT22;11653;50.848;4.584;2023-06-24T11:47:05;37.60;40.80
22974;DHT22;11653;50.848;4.584;2023-06-24T11:49:31;37.50;43.80
22974;DHT22;11653;50.848;4.584;2023-06-24T11:51:57;37.70;42.00
22974;DHT22;11653;50.848;4.584;2023-06-24T11:54:22;37.90;39.50
22974;DHT22;11653;50.848;4.584;2023-06-24T11:56:51;38.40;40.80
22974;DHT22;11653;50.848;4.584;2023-06-24T11:59:22;38.80;40.40
22974;DHT22;11653;50.848;4.584;2023-06-24T12:01:53;38.30;41.90
22974;DHT22;11653;50.848;4.584;2023-06-24T12:04:20;38.00;41.80
22974;DHT22;11653;50.848;4.584;2023-06-24T12:06:46;37.50;41.50
22974;DHT22;11653;50.848;4.584;2023-06-24T12:09:12;37.00;42.60
22974;DHT22;11653;50.848;4.584;2023-06-24T12:11:38;36.60;40.40
22974;DHT22;11653;50.848;4.584;2023-06-24T12:14:05;36.60;40.50
22974;DHT22;11653;50.848;4.584;2023-06-24T12:16:31;36.80;42.40
22974;DHT22;11653;50.848;4.584;2023-06-24T12:18:56;37.00;42.30
22974;DHT22;11653;50.848;4.584;2023-06-24T12:21:22;36.80;44.40
22974;DHT22;11653;50.848;4.584;2023-06-24T12:23:48;36.70;41.60
22974;DHT22;11653;50.848;4.584;2023-06-24T12:26:14;36.60;40.30
22974;DHT22;11653;50.848;4.584;2023-06-24T12:28:40;36.30;42.40
22974;DHT22;11653;50.848;4.584;2023-06-24T12:31:06;35.90;44.40
22974;DHT22;11653;50.848;4.584;2023-06-24T12:33:31;35.60;45.80
22974;DHT22;11653;50.848;4.584;2023-06-24T12:35:59;35.40;44.50
22974;DHT22;11653;50.848;4.584;2023-06-24T12:38:24;34.90;46.00
22974;DHT22;11653;50.848;4.584;2023-06-24T12:40:50;34.30;47.90
22974;DHT22;11653;50.848;4.584;2023-06-24T12:43:16;33.50;47.60
22974;DHT22;11653;50.848;4.584;2023-06-24T12:45:41;32.80;46.40
22974;DHT22;11653;50.848;4.584;2023-06-24T12:48:11;32.50;48.00
22974;DHT22;11653;50.848;4.584;2023-06-24T12:50:37;32.30;47.30
22974;DHT22;11653;50.848;4.584;2023-06-24T12:53:02;32.10;49.70
22974;DHT22;11653;50.848;4.584;2023-06-24T12:55:29;31.80;51.20
22974;DHT22;11653;50.848;4.584;2023-06-24T12:57:54;31.50;51.30
22974;DHT22;11653;50.848;4.584;2023-06-24T13:00:21;31.40;47.30
22974;DHT22;11653;50.848;4.584;2023-06-24T13:02:47;31.30;47.20
22974;DHT22;11653;50.848;4.584;2023-06-24T13:05:13;31.40;49.00
22974;DHT22;11653;50.848;4.584;2023-06-24T13:07:39;31.50;54.00
22974;DHT22;11653;50.848;4.584;2023-06-24T13:10:05;31.50;52.50
22974;DHT22;11653;50.848;4.584;2023-06-24T13:12:35;31.40;48.40
22974;DHT22;11653;50.848;4.584;2023-06-24T13:15:01;31.30;49.10
22974;DHT22;11653;50.848;4.584;2023-06-24T13:17:27;31.40;50.40
22974;DHT22;11653;50.848;4.584;2023-06-24T13:19:52;31.40;47.90
22974;DHT22;11653;50.848;4.584;2023-06-24T13:22:18;31.40;49.60
22974;DHT22;11653;50.848;4.584;2023-06-24T13:24:44;31.20;46.50
22974;DHT22;11653;50.848;4.584;2023-06-24T13:27:10;31.20;49.40
22974;DHT22;11653;50.848;4.584;2023-06-24T13:29:36;31.20;47.90
22974;DHT22;11653;50.848;4.584;2023-06-24T13:32:02;31.20;50.10
22974;DHT22;11653;50.848;4.584;2023-06-24T13:34:28;31.20;49.80
22974;DHT22;11653;50.848;4.584;2023-06-24T13:36:54;31.10;48.20
22974;DHT22;11653;50.848;4.584;2023-06-24T13:39:20;31.00;48.90
22974;DHT22;11653;50.848;4.584;2023-06-24T13:41:49;31.00;50.10
22974;DHT22;11653;50.848;4.584;2023-06-24T13:44:15;31.20;52.00
22974;DHT22;11653;50.848;4.584;2023-06-24T13:46:40;31.10;52.10
22974;DHT22;11653;50.848;4.584;2023-06-24T13:49:06;31.00;54.10
22974;DHT22;11653;50.848;4.584;2023-06-24T13:51:32;31.00;53.00
22974;DHT22;11653;50.848;4.584;2023-06-24T13:53:57;31.00;53.40
22974;DHT22;11653;50.848;4.584;2023-06-24T13:56:24;31.00;52.40
22974;DHT22;11653;50.848;4.584;2023-06-24T13:58:51;30.90;53.20
22974;DHT22;11653;50.848;4.584;2023-06-24T14:01:16;31.00;52.80
22974;DHT22;11653;50.848;4.584;2023-06-24T14:03:43;31.20;52.60
22974;DHT22;11653;50.848;4.584;2023-06-24T14:06:09;31.20;52.20
22974;DHT22;11653;50.848;4.584;2023-06-24T14:08:36;31.30;50.50
22974;DHT22;11653;50.848;4.584;2023-06-24T14:11:02;31.20;48.70
22974;DHT22;11653;50.848;4.584;2023-06-24T14:13:29;31.30;48.90
22974;DHT22;11653;50.848;4.584;2023-06-24T14:15:55;31.30;51.00
22974;DHT22;11653;50.848;4.584;2023-06-24T14:18:21;31.40;48.90
22974;DHT22;11653;50.848;4.584;2023-06-24T14:20:47;31.50;50.00
22974;DHT22;11653;50.848;4.584;2023-06-24T14:23:13;31.40;51.00
22974;DHT22;11653;50.848;4.584;2023-06-24T14:25:39;31.40;51.20
22974;DHT22;11653;50.848;4.584;2023-06-24T14:28:05;31.60;51.10
22974;DHT22;11653;50.848;4.584;2023-06-24T14:30:31;31.60;51.10
22974;DHT22;11653;50.848;4.584;2023-06-24T14:32:57;31.50;50.00
22974;DHT22;11653;50.848;4.584;2023-06-24T14:35:22;31.20;50.60
22974;DHT22;11653;50.848;4.584;2023-06-24T14:37:48;30.90;50.30
22974;DHT22;11653;50.848;4.584;2023-06-24T14:40:14;30.90;50.20
22974;DHT22;11653;50.848;4.584;2023-06-24T14:42:39;31.00;51.30
22974;DHT22;11653;50.848;4.584;2023-06-24T14:45:05;31.10;50.00
22974;DHT22;11653;50.848;4.584;2023-06-24T14:47:31;31.10;51.60
22974;DHT22;11653;50.848;4.584;2023-06-24T14:49:57;31.00;50.60
22974;DHT22;11653;50.848;4.584;2023-06-24T14:52:23;31.00;50.30
22974;DHT22;11653;50.848;4.584;2023-06-24T14:54:49;30.90;51.50
22974;DHT22;11653;50.848;4.584;2023-06-24T14:57:14;30.60;49.60
22974;DHT22;11653;50.848;4.584;2023-06-24T14:59:41;30.50;50.50
22974;DHT22;11653;50.848;4.584;2023-06-24T15:02:07;30.30;51.60
22974;DHT22;11653;50.848;4.584;2023-06-24T15:04:33;30.60;51.30
22974;DHT22;11653;50.848;4.584;2023-06-24T15:06:59;30.80;51.20
22974;DHT22;11653;50.848;4.584;2023-06-24T15:09:25;30.90;50.40
22974;DHT22;11653;50.848;4.584;2023-06-24T15:11:51;30.90;51.60
22974;DHT22;11653;50.848;4.584;2023-06-24T15:14:16;31.00;49.80
22974;DHT22;11653;50.848;4.584;2023-06-24T15:16:42;31.00;50.10
22974;DHT22;11653;50.848;4.584;2023-06-24T15:19:08;30.90;50.80
22974;DHT22;11653;50.848;4.584;2023-06-24T15:21:33;31.00;50.60
22974;DHT22;11653;50.848;4.584;2023-06-24T15:23:59;31.10;51.10
22974;DHT22;11653;50.848;4.584;2023-06-24T15:26:25;31.00;50.90
22974;DHT22;11653;50.848;4.584;2023-06-24T15:28:50;30.90;51.20
22974;DHT22;11653;50.848;4.584;2023-06-24T15:31:16;30.80;54.30
22974;DHT22;11653;50.848;4.584;2023-06-24T15:33:41;31.00;54.00
22974;DHT22;11653;50.848;4.584;2023-06-24T15:36:07;31.10;52.50
22974;DHT22;11653;50.848;4.584;2023-06-24T15:38:33;31.10;51.80
22974;DHT22;11653;50.848;4.584;2023-06-24T15:40:59;30.90;51.10
22974;DHT22;11653;50.848;4.584;2023-06-24T15:43:24;30.80;51.30
22974;DHT22;11653;50.848;4.584;2023-06-24T15:45:50;30.90;53.70
22974;DHT22;11653;50.848;4.584;2023-06-24T15:48:16;31.10;53.00
22974;DHT22;11653;50.848;4.584;2023-06-24T15:50:42;31.00;51.90
22974;DHT22;11653;50.848;4.584;2023-06-24T15:53:07;30.90;52.10